sensor_id;sensor_type;location;lat;lon;timestamp;P1;durP1;ratioP1;P2;durP2;ratioP2
51810;SDS011;52468;40.116;18.296;2023-04-03T00:01:17;16.03;;;6.27;;
51810;SDS011;52468;40.116;18.296;2023-04-03T00:03:45;15.30;;;6.43;;
51810;SDS011;52468;40.116;18.296;2023-04-03T00:06:13;11.93;;;5.73;;
51810;SDS011;52468;40.116;18.296;2023-04-03T00:08:42;15.40;;;5.50;;
51810;SDS011;52468;40.116;18.296;2023-04-03T00:11:09;28.43;;;6.70;;
51810;SDS011;52468;40.116;18.296;2023-04-03T00:13:39;16.83;;;6.33;;
51810;SDS011;52468;40.116;18.296;2023-04-03T00:16:07;7.37;;;5.50;;
51810;SDS011;52468;40.116;18.296;2023-04-03T00:18:38;23.10;;;6.73;;
51810;SDS011;52468;40.116;18.296;2023-04-03T00:21:07;17.60;;;6.93;;
51810;SDS011;52468;40.116;18.296;2023-04-03T00:23:37;14.63;;;6.57;;
51810;SDS011;52468;40.116;18.296;2023-04-03T00:26:05;13.80;;;5.00;;
51810;SDS011;52468;40.116;18.296;2023-04-03T00:28:32;21.13;;;9.17;;
51810;SDS011;52468;40.116;18.296;2023-04-03T00:31:00;15.23;;;5.50;;
51810;SDS011;52468;40.116;18.296;2023-04-03T00:33:28;12.57;;;6.23;;
51810;SDS011;52468;40.116;18.296;2023-04-03T00:35:56;15.93;;;6.57;;
51810;SDS011;52468;40.116;18.296;2023-04-03T00:38:24;20.23;;;6.13;;
51810;SDS011;52468;40.116;18.296;2023-04-03T00:40:52;18.17;;;6.17;;
51810;SDS011;52468;40.116;18.296;2023-04-03T00:43:22;12.93;;;6.67;;
51810;SDS011;52468;40.116;18.296;2023-04-03T00:45:54;17.38;;;6.85;;
51810;SDS011;52468;40.116;18.296;2023-04-03T00:51:00;10.63;;;5.97;;
51810;SDS011;52468;40.116;18.296;2023-04-03T00:53:31;16.83;;;8.93;;
51810;SDS011;52468;40.116;18.296;2023-04-03T00:56:05;17.52;;;7.80;;
51810;SDS011;52468;40.116;18.296;2023-04-03T00:58:54;20.17;;;7.90;;
51810;SDS011;52468;40.116;18.296;2023-04-03T01:01:29;18.35;;;7.88;;
51810;SDS011;52468;40.116;18.296;2023-04-03T01:03:59;13.77;;;6.73;;
51810;SDS011;52468;40.116;18.296;2023-04-03T01:06:28;14.33;;;7.67;;
51810;SDS011;52468;40.116;18.296;2023-04-03T01:09:05;12.47;;;7.07;;
51810;SDS011;52468;40.116;18.296;2023-04-03T01:11:34;18.77;;;6.70;;
51810;SDS011;52468;40.116;18.296;2023-04-03T01:14:02;15.17;;;7.57;;
51810;SDS011;52468;40.116;18.296;2023-04-03T01:16:30;15.47;;;6.90;;
51810;SDS011;52468;40.116;18.296;2023-04-03T01:18:59;16.93;;;6.07;;
51810;SDS011;52468;40.116;18.296;2023-04-03T01:26:54;17.33;;;7.03;;
51810;SDS011;52468;40.116;18.296;2023-04-03T01:29:22;13.63;;;6.77;;
51810;SDS011;52468;40.116;18.296;2023-04-03T01:31:52;12.03;;;6.97;;
51810;SDS011;52468;40.116;18.296;2023-04-03T01:34:25;18.23;;;5.73;;
51810;SDS011;52468;40.116;18.296;2023-04-03T01:36:54;22.03;;;7.23;;
51810;SDS011;52468;40.116;18.296;2023-04-03T01:39:22;21.33;;;6.23;;
51810;SDS011;52468;40.116;18.296;2023-04-03T01:41:51;14.23;;;5.70;;
51810;SDS011;52468;40.116;18.296;2023-04-03T01:44:30;13.60;;;4.53;;
51810;SDS011;52468;40.116;18.296;2023-04-03T01:46:57;14.53;;;6.03;;
51810;SDS011;52468;40.116;18.296;2023-04-03T01:49:27;11.97;;;5.63;;
51810;SDS011;52468;40.116;18.296;2023-04-03T01:51:56;18.00;;;6.20;;
51810;SDS011;52468;40.116;18.296;2023-04-03T01:54:24;11.97;;;4.47;;
51810;SDS011;52468;40.116;18.296;2023-04-03T01:56:52;7.90;;;4.90;;
51810;SDS011;52468;40.116;18.296;2023-04-03T01:59:20;19.67;;;6.30;;
51810;SDS011;52468;40.116;18.296;2023-04-03T02:01:48;12.83;;;4.30;;
51810;SDS011;52468;40.116;18.296;2023-04-03T02:04:16;17.23;;;6.77;;
51810;SDS011;52468;40.116;18.296;2023-04-03T02:06:45;17.27;;;5.63;;
51810;SDS011;52468;40.116;18.296;2023-04-03T02:09:12;7.33;;;3.60;;
51810;SDS011;52468;40.116;18.296;2023-04-03T02:11:40;14.40;;;4.20;;
51810;SDS011;52468;40.116;18.296;2023-04-03T02:14:09;15.57;;;5.63;;
51810;SDS011;52468;40.116;18.296;2023-04-03T02:16:37;6.37;;;3.43;;
51810;SDS011;52468;40.116;18.296;2023-04-03T02:19:05;14.97;;;5.40;;
51810;SDS011;52468;40.116;18.296;2023-04-03T02:21:33;10.40;;;5.17;;
51810;SDS011;52468;40.116;18.296;2023-04-03T02:24:01;24.27;;;4.60;;
51810;SDS011;52468;40.116;18.296;2023-04-03T02:26:29;12.07;;;3.23;;
51810;SDS011;52468;40.116;18.296;2023-04-03T02:28:57;17.27;;;6.50;;
51810;SDS011;52468;40.116;18.296;2023-04-03T02:31:25;15.80;;;4.90;;
51810;SDS011;52468;40.116;18.296;2023-04-03T02:33:53;11.07;;;5.37;;
51810;SDS011;52468;40.116;18.296;2023-04-03T02:36:21;12.27;;;3.27;;
51810;SDS011;52468;40.116;18.296;2023-04-03T02:38:53;14.10;;;4.35;;
51810;SDS011;52468;40.116;18.296;2023-04-03T02:41:21;10.37;;;5.07;;
51810;SDS011;52468;40.116;18.296;2023-04-03T02:43:51;10.27;;;3.90;;
51810;SDS011;52468;40.116;18.296;2023-04-03T02:46:19;17.90;;;3.70;;
51810;SDS011;52468;40.116;18.296;2023-04-03T02:48:47;19.60;;;4.10;;
51810;SDS011;52468;40.116;18.296;2023-04-03T02:51:15;10.47;;;3.73;;
51810;SDS011;52468;40.116;18.296;2023-04-03T02:53:43;11.07;;;3.73;;
51810;SDS011;52468;40.116;18.296;2023-04-03T02:56:16;12.02;;;3.65;;
51810;SDS011;52468;40.116;18.296;2023-04-03T02:58:45;10.23;;;3.00;;
51810;SDS011;52468;40.116;18.296;2023-04-03T03:01:13;13.73;;;5.13;;
51810;SDS011;52468;40.116;18.296;2023-04-03T03:03:41;11.27;;;5.67;;
51810;SDS011;52468;40.116;18.296;2023-04-03T03:06:10;25.67;;;7.23;;
51810;SDS011;52468;40.116;18.296;2023-04-03T03:08:39;15.57;;;3.60;;
51810;SDS011;52468;40.116;18.296;2023-04-03T03:11:08;9.30;;;3.30;;
51810;SDS011;52468;40.116;18.296;2023-04-03T03:13:37;8.37;;;4.17;;
51810;SDS011;52468;40.116;18.296;2023-04-03T03:16:05;15.37;;;5.53;;
51810;SDS011;52468;40.116;18.296;2023-04-03T03:18:34;9.10;;;3.27;;
51810;SDS011;52468;40.116;18.296;2023-04-03T03:21:02;16.37;;;4.77;;
51810;SDS011;52468;40.116;18.296;2023-04-03T03:23:32;10.63;;;4.80;;
51810;SDS011;52468;40.116;18.296;2023-04-03T03:26:02;8.53;;;4.27;;
51810;SDS011;52468;40.116;18.296;2023-04-03T03:28:34;15.73;;;3.60;;
51810;SDS011;52468;40.116;18.296;2023-04-03T03:31:05;10.93;;;3.50;;
51810;SDS011;52468;40.116;18.296;2023-04-03T03:33:35;16.80;;;5.77;;
51810;SDS011;52468;40.116;18.296;2023-04-03T03:36:03;17.63;;;4.30;;
51810;SDS011;52468;40.116;18.296;2023-04-03T03:38:32;13.47;;;4.23;;
51810;SDS011;52468;40.116;18.296;2023-04-03T03:41:01;10.37;;;4.63;;
51810;SDS011;52468;40.116;18.296;2023-04-03T03:43:31;25.77;;;3.97;;
51810;SDS011;52468;40.116;18.296;2023-04-03T03:45:59;14.07;;;5.90;;
51810;SDS011;52468;40.116;18.296;2023-04-03T03:48:27;11.23;;;5.33;;
51810;SDS011;52468;40.116;18.296;2023-04-03T03:50:56;13.97;;;5.67;;
51810;SDS011;52468;40.116;18.296;2023-04-03T03:53:28;6.87;;;3.20;;
51810;SDS011;52468;40.116;18.296;2023-04-03T03:56:00;12.30;;;6.10;;
51810;SDS011;52468;40.116;18.296;2023-04-03T03:58:29;20.93;;;3.60;;
51810;SDS011;52468;40.116;18.296;2023-04-03T04:01:00;11.37;;;3.70;;
51810;SDS011;52468;40.116;18.296;2023-04-03T04:03:29;13.83;;;6.40;;
51810;SDS011;52468;40.116;18.296;2023-04-03T04:05:58;12.63;;;3.80;;
51810;SDS011;52468;40.116;18.296;2023-04-03T04:08:26;12.83;;;3.83;;
51810;SDS011;52468;40.116;18.296;2023-04-03T04:10:54;26.93;;;4.83;;
51810;SDS011;52468;40.116;18.296;2023-04-03T04:13:22;12.13;;;2.97;;
51810;SDS011;52468;40.116;18.296;2023-04-03T04:15:50;15.30;;;4.57;;
51810;SDS011;52468;40.116;18.296;2023-04-03T04:18:19;21.93;;;6.37;;
51810;SDS011;52468;40.116;18.296;2023-04-03T04:20:48;8.77;;;3.70;;
51810;SDS011;52468;40.116;18.296;2023-04-03T04:23:18;9.33;;;3.67;;
51810;SDS011;52468;40.116;18.296;2023-04-03T04:25:48;15.50;;;3.73;;
51810;SDS011;52468;40.116;18.296;2023-04-03T04:28:17;12.27;;;3.90;;
51810;SDS011;52468;40.116;18.296;2023-04-03T04:30:46;15.77;;;6.23;;
51810;SDS011;52468;40.116;18.296;2023-04-03T04:33:16;9.57;;;3.70;;
51810;SDS011;52468;40.116;18.296;2023-04-03T04:35:46;12.10;;;4.37;;
51810;SDS011;52468;40.116;18.296;2023-04-03T04:38:16;16.33;;;5.60;;
51810;SDS011;52468;40.116;18.296;2023-04-03T04:40:44;13.77;;;6.27;;
51810;SDS011;52468;40.116;18.296;2023-04-03T04:43:12;9.00;;;4.53;;
51810;SDS011;52468;40.116;18.296;2023-04-03T04:45:45;12.20;;;6.27;;
51810;SDS011;52468;40.116;18.296;2023-04-03T04:48:16;24.30;;;6.50;;
51810;SDS011;52468;40.116;18.296;2023-04-03T04:50:45;13.73;;;5.23;;
51810;SDS011;52468;40.116;18.296;2023-04-03T04:53:13;10.67;;;4.00;;
51810;SDS011;52468;40.116;18.296;2023-04-03T04:55:42;8.40;;;3.87;;
51810;SDS011;52468;40.116;18.296;2023-04-03T04:58:10;11.70;;;5.33;;
51810;SDS011;52468;40.116;18.296;2023-04-03T05:00:38;18.63;;;6.87;;
51810;SDS011;52468;40.116;18.296;2023-04-03T05:03:06;13.63;;;6.10;;
51810;SDS011;52468;40.116;18.296;2023-04-03T05:05:34;12.60;;;4.37;;
51810;SDS011;52468;40.116;18.296;2023-04-03T05:08:03;14.97;;;5.47;;
51810;SDS011;52468;40.116;18.296;2023-04-03T05:10:31;9.80;;;5.70;;
51810;SDS011;52468;40.116;18.296;2023-04-03T05:12:59;15.03;;;5.40;;
51810;SDS011;52468;40.116;18.296;2023-04-03T05:15:27;21.57;;;5.73;;
51810;SDS011;52468;40.116;18.296;2023-04-03T05:17:55;16.93;;;4.70;;
51810;SDS011;52468;40.116;18.296;2023-04-03T05:20:24;10.90;;;6.67;;
51810;SDS011;52468;40.116;18.296;2023-04-03T05:22:52;10.00;;;5.70;;
51810;SDS011;52468;40.116;18.296;2023-04-03T05:25:20;12.70;;;5.30;;
51810;SDS011;52468;40.116;18.296;2023-04-03T05:27:48;25.67;;;6.30;;
51810;SDS011;52468;40.116;18.296;2023-04-03T05:30:16;20.13;;;6.53;;
51810;SDS011;52468;40.116;18.296;2023-04-03T05:32:46;13.53;;;5.73;;
51810;SDS011;52468;40.116;18.296;2023-04-03T05:35:18;17.30;;;7.43;;
51810;SDS011;52468;40.116;18.296;2023-04-03T05:37:49;12.87;;;4.60;;
51810;SDS011;52468;40.116;18.296;2023-04-03T05:40:17;12.00;;;5.73;;
51810;SDS011;52468;40.116;18.296;2023-04-03T05:42:48;11.57;;;5.73;;
51810;SDS011;52468;40.116;18.296;2023-04-03T05:45:18;16.43;;;5.87;;
51810;SDS011;52468;40.116;18.296;2023-04-03T05:47:46;18.43;;;6.43;;
51810;SDS011;52468;40.116;18.296;2023-04-03T05:50:14;8.43;;;5.33;;
51810;SDS011;52468;40.116;18.296;2023-04-03T05:52:43;12.63;;;5.17;;
51810;SDS011;52468;40.116;18.296;2023-04-03T05:55:14;26.60;;;6.70;;
51810;SDS011;52468;40.116;18.296;2023-04-03T05:57:43;17.10;;;5.97;;
51810;SDS011;52468;40.116;18.296;2023-04-03T06:00:15;13.60;;;7.43;;
51810;SDS011;52468;40.116;18.296;2023-04-03T06:02:51;15.83;;;6.97;;
51810;SDS011;52468;40.116;18.296;2023-04-03T06:05:22;13.23;;;6.67;;
51810;SDS011;52468;40.116;18.296;2023-04-03T06:07:51;21.70;;;6.63;;
51810;SDS011;52468;40.116;18.296;2023-04-03T06:10:19;12.27;;;6.07;;
51810;SDS011;52468;40.116;18.296;2023-04-03T06:12:47;15.57;;;5.70;;
51810;SDS011;52468;40.116;18.296;2023-04-03T06:15:15;16.43;;;6.67;;
51810;SDS011;52468;40.116;18.296;2023-04-03T06:17:44;14.30;;;7.47;;
51810;SDS011;52468;40.116;18.296;2023-04-03T06:20:13;14.23;;;7.43;;
51810;SDS011;52468;40.116;18.296;2023-04-03T06:22:41;16.17;;;7.60;;
51810;SDS011;52468;40.116;18.296;2023-04-03T06:25:11;13.37;;;7.57;;
51810;SDS011;52468;40.116;18.296;2023-04-03T06:27:39;11.10;;;6.47;;
51810;SDS011;52468;40.116;18.296;2023-04-03T06:30:07;17.67;;;8.30;;
51810;SDS011;52468;40.116;18.296;2023-04-03T06:32:35;20.90;;;9.67;;
51810;SDS011;52468;40.116;18.296;2023-04-03T06:35:04;19.03;;;8.43;;
51810;SDS011;52468;40.116;18.296;2023-04-03T06:37:32;21.27;;;9.43;;
51810;SDS011;52468;40.116;18.296;2023-04-03T06:40:00;15.67;;;6.63;;
51810;SDS011;52468;40.116;18.296;2023-04-03T06:42:30;15.93;;;6.17;;
51810;SDS011;52468;40.116;18.296;2023-04-03T06:45:05;17.17;;;5.97;;
51810;SDS011;52468;40.116;18.296;2023-04-03T06:47:34;17.43;;;6.23;;
51810;SDS011;52468;40.116;18.296;2023-04-03T06:50:03;11.83;;;6.87;;
51810;SDS011;52468;40.116;18.296;2023-04-03T06:52:31;13.73;;;6.30;;
51810;SDS011;52468;40.116;18.296;2023-04-03T06:54:59;16.33;;;6.37;;
51810;SDS011;52468;40.116;18.296;2023-04-03T06:57:27;17.30;;;6.73;;
51810;SDS011;52468;40.116;18.296;2023-04-03T06:59:55;11.53;;;5.97;;
51810;SDS011;52468;40.116;18.296;2023-04-03T07:02:23;9.17;;;5.37;;
51810;SDS011;52468;40.116;18.296;2023-04-03T07:04:51;14.07;;;5.90;;
51810;SDS011;52468;40.116;18.296;2023-04-03T07:07:19;18.77;;;6.87;;
51810;SDS011;52468;40.116;18.296;2023-04-03T07:09:47;10.70;;;5.77;;
51810;SDS011;52468;40.116;18.296;2023-04-03T07:12:15;15.13;;;5.53;;
51810;SDS011;52468;40.116;18.296;2023-04-03T07:14:43;16.17;;;6.13;;
51810;SDS011;52468;40.116;18.296;2023-04-03T07:17:11;11.13;;;4.93;;
51810;SDS011;52468;40.116;18.296;2023-04-03T07:19:39;8.00;;;4.63;;
51810;SDS011;52468;40.116;18.296;2023-04-03T07:22:07;6.80;;;4.90;;
51810;SDS011;52468;40.116;18.296;2023-04-03T07:24:35;19.93;;;6.27;;
51810;SDS011;52468;40.116;18.296;2023-04-03T07:27:03;15.80;;;5.70;;
51810;SDS011;52468;40.116;18.296;2023-04-03T07:29:31;8.43;;;3.63;;
51810;SDS011;52468;40.116;18.296;2023-04-03T07:31:59;8.57;;;4.27;;
51810;SDS011;52468;40.116;18.296;2023-04-03T07:34:27;9.23;;;4.63;;
51810;SDS011;52468;40.116;18.296;2023-04-03T07:36:55;9.10;;;5.43;;
51810;SDS011;52468;40.116;18.296;2023-04-03T07:39:23;8.17;;;3.47;;
51810;SDS011;52468;40.116;18.296;2023-04-03T07:41:51;11.00;;;4.50;;
51810;SDS011;52468;40.116;18.296;2023-04-03T07:44:19;5.93;;;3.53;;
51810;SDS011;52468;40.116;18.296;2023-04-03T07:46:47;9.97;;;3.30;;
51810;SDS011;52468;40.116;18.296;2023-04-03T07:49:16;12.97;;;4.37;;
51810;SDS011;52468;40.116;18.296;2023-04-03T07:51:45;8.73;;;3.93;;
51810;SDS011;52468;40.116;18.296;2023-04-03T07:54:13;8.77;;;3.27;;
51810;SDS011;52468;40.116;18.296;2023-04-03T07:56:42;11.07;;;3.63;;
51810;SDS011;52468;40.116;18.296;2023-04-03T07:59:10;6.37;;;2.87;;
51810;SDS011;52468;40.116;18.296;2023-04-03T08:01:38;6.37;;;4.23;;
51810;SDS011;52468;40.116;18.296;2023-04-03T08:04:06;9.87;;;3.63;;
51810;SDS011;52468;40.116;18.296;2023-04-03T08:06:34;8.80;;;3.80;;
51810;SDS011;52468;40.116;18.296;2023-04-03T08:09:08;6.80;;;3.00;;
51810;SDS011;52468;40.116;18.296;2023-04-03T08:11:38;9.90;;;5.23;;
51810;SDS011;52468;40.116;18.296;2023-04-03T08:14:07;14.33;;;3.13;;
51810;SDS011;52468;40.116;18.296;2023-04-03T08:16:34;11.03;;;3.30;;
51810;SDS011;52468;40.116;18.296;2023-04-03T08:19:02;4.60;;;2.47;;
51810;SDS011;52468;40.116;18.296;2023-04-03T08:21:31;8.27;;;4.00;;
51810;SDS011;52468;40.116;18.296;2023-04-03T08:23:59;9.37;;;3.40;;
51810;SDS011;52468;40.116;18.296;2023-04-03T08:26:27;9.37;;;3.40;;
51810;SDS011;52468;40.116;18.296;2023-04-03T08:28:55;9.50;;;3.50;;
51810;SDS011;52468;40.116;18.296;2023-04-03T08:31:22;6.10;;;3.80;;
51810;SDS011;52468;40.116;18.296;2023-04-03T08:33:50;9.40;;;4.63;;
51810;SDS011;52468;40.116;18.296;2023-04-03T08:36:22;7.23;;;4.17;;
51810;SDS011;52468;40.116;18.296;2023-04-03T08:38:55;9.10;;;3.27;;
51810;SDS011;52468;40.116;18.296;2023-04-03T08:44:06;8.23;;;3.93;;
51810;SDS011;52468;40.116;18.296;2023-04-03T08:52:10;18.77;;;3.87;;
51810;SDS011;52468;40.116;18.296;2023-04-03T08:54:56;9.40;;;5.03;;
51810;SDS011;52468;40.116;18.296;2023-04-03T08:57:33;7.90;;;5.13;;
51810;SDS011;52468;40.116;18.296;2023-04-03T09:02:43;12.77;;;3.60;;
51810;SDS011;52468;40.116;18.296;2023-04-03T09:05:17;12.30;;;3.47;;
51810;SDS011;52468;40.116;18.296;2023-04-03T09:07:52;6.47;;;3.53;;
51810;SDS011;52468;40.116;18.296;2023-04-03T09:10:29;12.07;;;3.07;;
51810;SDS011;52468;40.116;18.296;2023-04-03T09:15:47;8.10;;;4.87;;
51810;SDS011;52468;40.116;18.296;2023-04-03T09:18:17;5.43;;;2.97;;
51810;SDS011;52468;40.116;18.296;2023-04-03T09:21:13;7.63;;;4.00;;
51810;SDS011;52468;40.116;18.296;2023-04-03T09:23:56;7.97;;;4.00;;
51810;SDS011;52468;40.116;18.296;2023-04-03T09:29:36;9.20;;;2.67;;
51810;SDS011;52468;40.116;18.296;2023-04-03T09:35:04;6.20;;;2.97;;
51810;SDS011;52468;40.116;18.296;2023-04-03T09:37:47;3.80;;;1.70;;
51810;SDS011;52468;40.116;18.296;2023-04-03T09:42:54;4.30;;;2.80;;
51810;SDS011;52468;40.116;18.296;2023-04-03T09:48:07;3.43;;;2.20;;
51810;SDS011;52468;40.116;18.296;2023-04-03T09:53:31;2.87;;;1.73;;
51810;SDS011;52468;40.116;18.296;2023-04-03T09:56:49;3.83;;;2.30;;
51810;SDS011;52468;40.116;18.296;2023-04-03T10:01:34;7.53;;;2.70;;
51810;SDS011;52468;40.116;18.296;2023-04-03T10:06:36;7.20;;;2.57;;
51810;SDS011;52468;40.116;18.296;2023-04-03T10:09:23;7.63;;;2.47;;
51810;SDS011;52468;40.116;18.296;2023-04-03T10:12:00;11.83;;;4.10;;
51810;SDS011;52468;40.116;18.296;2023-04-03T10:14:36;7.30;;;3.57;;
51810;SDS011;52468;40.116;18.296;2023-04-03T10:17:24;10.90;;;2.80;;
51810;SDS011;52468;40.116;18.296;2023-04-03T10:20:05;5.17;;;2.23;;
51810;SDS011;52468;40.116;18.296;2023-04-03T10:30:58;7.95;;;2.47;;
51810;SDS011;52468;40.116;18.296;2023-04-03T10:36:43;6.83;;;2.23;;
51810;SDS011;52468;40.116;18.296;2023-04-03T10:53:01;6.57;;;1.73;;
51810;SDS011;52468;40.116;18.296;2023-04-03T10:55:46;5.73;;;1.93;;
51810;SDS011;52468;40.116;18.296;2023-04-03T10:58:31;6.80;;;3.00;;
51810;SDS011;52468;40.116;18.296;2023-04-03T11:03:56;3.17;;;1.33;;
51810;SDS011;52468;40.116;18.296;2023-04-03T11:06:25;4.07;;;2.23;;
51810;SDS011;52468;40.116;18.296;2023-04-03T11:09:00;6.77;;;1.80;;
51810;SDS011;52468;40.116;18.296;2023-04-03T11:11:34;4.57;;;1.50;;
51810;SDS011;52468;40.116;18.296;2023-04-03T11:14:23;2.20;;;0.80;;
51810;SDS011;52468;40.116;18.296;2023-04-03T11:19:50;2.63;;;1.60;;
51810;SDS011;52468;40.116;18.296;2023-04-03T11:22:36;6.03;;;1.20;;
51810;SDS011;52468;40.116;18.296;2023-04-03T11:25:14;1.67;;;0.93;;
51810;SDS011;52468;40.116;18.296;2023-04-03T11:27:56;2.30;;;0.70;;
51810;SDS011;52468;40.116;18.296;2023-04-03T11:30:30;2.13;;;1.03;;
51810;SDS011;52468;40.116;18.296;2023-04-03T11:41:52;1.67;;;1.03;;
51810;SDS011;52468;40.116;18.296;2023-04-03T11:44:36;4.97;;;1.23;;
51810;SDS011;52468;40.116;18.296;2023-04-03T11:47:06;3.77;;;1.13;;
51810;SDS011;52468;40.116;18.296;2023-04-03T12:05:52;6.83;;;2.53;;
51810;SDS011;52468;40.116;18.296;2023-04-03T12:16:33;8.57;;;2.77;;
51810;SDS011;52468;40.116;18.296;2023-04-03T12:29:46;6.93;;;3.57;;
51810;SDS011;52468;40.116;18.296;2023-04-03T12:32:31;4.60;;;1.43;;
51810;SDS011;52468;40.116;18.296;2023-04-03T12:46:18;11.13;;;6.23;;
51810;SDS011;52468;40.116;18.296;2023-04-03T12:48:49;11.10;;;6.70;;
51810;SDS011;52468;40.116;18.296;2023-04-03T12:51:34;13.23;;;6.97;;
51810;SDS011;52468;40.116;18.296;2023-04-03T12:54:14;14.13;;;8.87;;
51810;SDS011;52468;40.116;18.296;2023-04-03T12:56:47;5.33;;;3.10;;
51810;SDS011;52468;40.116;18.296;2023-04-03T12:59:16;14.97;;;7.40;;
51810;SDS011;52468;40.116;18.296;2023-04-03T13:01:44;5.13;;;2.50;;
51810;SDS011;52468;40.116;18.296;2023-04-03T13:04:25;5.70;;;2.20;;
51810;SDS011;52468;40.116;18.296;2023-04-03T13:06:55;8.70;;;6.67;;
51810;SDS011;52468;40.116;18.296;2023-04-03T13:09:24;8.93;;;5.90;;
51810;SDS011;52468;40.116;18.296;2023-04-03T13:11:59;7.07;;;2.77;;
51810;SDS011;52468;40.116;18.296;2023-04-03T13:14:56;10.23;;;7.17;;
51810;SDS011;52468;40.116;18.296;2023-04-03T13:17:26;10.93;;;3.87;;
51810;SDS011;52468;40.116;18.296;2023-04-03T13:19:54;4.50;;;1.70;;
51810;SDS011;52468;40.116;18.296;2023-04-03T13:22:33;6.17;;;2.70;;
51810;SDS011;52468;40.116;18.296;2023-04-03T13:25:06;8.07;;;1.30;;
51810;SDS011;52468;40.116;18.296;2023-04-03T13:27:36;2.57;;;2.03;;
51810;SDS011;52468;40.116;18.296;2023-04-03T13:33:21;4.03;;;1.60;;
51810;SDS011;52468;40.116;18.296;2023-04-03T13:35:56;2.50;;;1.27;;
51810;SDS011;52468;40.116;18.296;2023-04-03T13:38:37;4.07;;;1.80;;
51810;SDS011;52468;40.116;18.296;2023-04-03T13:41:29;3.80;;;1.63;;
51810;SDS011;52468;40.116;18.296;2023-04-03T13:43:57;4.60;;;0.93;;
51810;SDS011;52468;40.116;18.296;2023-04-03T13:46:53;4.53;;;1.50;;
51810;SDS011;52468;40.116;18.296;2023-04-03T13:51:54;2.77;;;1.17;;
51810;SDS011;52468;40.116;18.296;2023-04-03T13:54:32;6.47;;;2.27;;
51810;SDS011;52468;40.116;18.296;2023-04-03T13:57:03;3.85;;;1.30;;
51810;SDS011;52468;40.116;18.296;2023-04-03T13:59:38;9.30;;;1.83;;
51810;SDS011;52468;40.116;18.296;2023-04-03T14:02:21;3.97;;;2.07;;
51810;SDS011;52468;40.116;18.296;2023-04-03T14:05:00;12.50;;;1.80;;
51810;SDS011;52468;40.116;18.296;2023-04-03T14:07:30;1.97;;;1.60;;
51810;SDS011;52468;40.116;18.296;2023-04-03T14:09:58;3.43;;;1.10;;
51810;SDS011;52468;40.116;18.296;2023-04-03T14:14:56;2.13;;;1.20;;
51810;SDS011;52468;40.116;18.296;2023-04-03T14:17:25;4.70;;;1.80;;
51810;SDS011;52468;40.116;18.296;2023-04-03T14:19:55;2.77;;;1.90;;
51810;SDS011;52468;40.116;18.296;2023-04-03T14:22:26;4.30;;;1.80;;
51810;SDS011;52468;40.116;18.296;2023-04-03T14:24:56;3.40;;;1.93;;
51810;SDS011;52468;40.116;18.296;2023-04-03T14:27:26;4.80;;;3.00;;
51810;SDS011;52468;40.116;18.296;2023-04-03T14:29:57;4.90;;;3.03;;
51810;SDS011;52468;40.116;18.296;2023-04-03T14:32:25;5.10;;;1.83;;
51810;SDS011;52468;40.116;18.296;2023-04-03T14:34:54;3.43;;;1.50;;
51810;SDS011;52468;40.116;18.296;2023-04-03T14:37:23;3.20;;;1.53;;
51810;SDS011;52468;40.116;18.296;2023-04-03T14:39:54;5.87;;;2.43;;
51810;SDS011;52468;40.116;18.296;2023-04-03T14:42:30;2.03;;;1.20;;
51810;SDS011;52468;40.116;18.296;2023-04-03T14:45:00;5.67;;;1.47;;
51810;SDS011;52468;40.116;18.296;2023-04-03T14:47:30;2.33;;;1.70;;
51810;SDS011;52468;40.116;18.296;2023-04-03T14:49:59;1.50;;;0.80;;
51810;SDS011;52468;40.116;18.296;2023-04-03T14:52:30;2.13;;;1.10;;
51810;SDS011;52468;40.116;18.296;2023-04-03T14:55:01;1.63;;;1.20;;
51810;SDS011;52468;40.116;18.296;2023-04-03T14:57:31;0.97;;;0.70;;
51810;SDS011;52468;40.116;18.296;2023-04-03T14:59:59;3.50;;;1.53;;
51810;SDS011;52468;40.116;18.296;2023-04-03T15:02:30;2.53;;;1.20;;
51810;SDS011;52468;40.116;18.296;2023-04-03T15:05:00;3.17;;;1.90;;
51810;SDS011;52468;40.116;18.296;2023-04-03T15:07:35;2.30;;;1.23;;
51810;SDS011;52468;40.116;18.296;2023-04-03T15:10:22;2.17;;;1.63;;
51810;SDS011;52468;40.116;18.296;2023-04-03T15:12:55;2.23;;;1.37;;
51810;SDS011;52468;40.116;18.296;2023-04-03T15:15:23;3.63;;;1.53;;
51810;SDS011;52468;40.116;18.296;2023-04-03T15:17:55;6.23;;;1.57;;
51810;SDS011;52468;40.116;18.296;2023-04-03T15:20:27;2.50;;;1.33;;
51810;SDS011;52468;40.116;18.296;2023-04-03T15:22:58;5.17;;;2.47;;
51810;SDS011;52468;40.116;18.296;2023-04-03T15:25:31;3.13;;;2.38;;
51810;SDS011;52468;40.116;18.296;2023-04-03T15:28:00;3.93;;;2.03;;
51810;SDS011;52468;40.116;18.296;2023-04-03T15:30:28;2.93;;;1.70;;
51810;SDS011;52468;40.116;18.296;2023-04-03T15:32:56;4.57;;;1.57;;
51810;SDS011;52468;40.116;18.296;2023-04-03T15:35:24;3.73;;;2.03;;
51810;SDS011;52468;40.116;18.296;2023-04-03T15:37:51;5.10;;;2.40;;
51810;SDS011;52468;40.116;18.296;2023-04-03T15:40:19;3.63;;;2.13;;
51810;SDS011;52468;40.116;18.296;2023-04-03T15:42:47;3.53;;;1.77;;
51810;SDS011;52468;40.116;18.296;2023-04-03T15:45:15;3.97;;;2.43;;
51810;SDS011;52468;40.116;18.296;2023-04-03T15:47:43;2.07;;;1.47;;
51810;SDS011;52468;40.116;18.296;2023-04-03T15:50:11;3.77;;;2.23;;
51810;SDS011;52468;40.116;18.296;2023-04-03T15:52:39;3.70;;;1.70;;
51810;SDS011;52468;40.116;18.296;2023-04-03T15:55:07;4.73;;;1.57;;
51810;SDS011;52468;40.116;18.296;2023-04-03T15:57:35;2.77;;;2.13;;
51810;SDS011;52468;40.116;18.296;2023-04-03T16:00:08;4.82;;;2.25;;
51810;SDS011;52468;40.116;18.296;2023-04-03T16:02:37;3.50;;;1.73;;
51810;SDS011;52468;40.116;18.296;2023-04-03T16:05:05;4.73;;;3.10;;
51810;SDS011;52468;40.116;18.296;2023-04-03T16:07:33;7.97;;;3.33;;
51810;SDS011;52468;40.116;18.296;2023-04-03T16:10:01;3.53;;;1.63;;
51810;SDS011;52468;40.116;18.296;2023-04-03T16:12:29;3.07;;;1.93;;
51810;SDS011;52468;40.116;18.296;2023-04-03T16:14:57;4.13;;;2.37;;
51810;SDS011;52468;40.116;18.296;2023-04-03T16:17:25;8.10;;;3.13;;
51810;SDS011;52468;40.116;18.296;2023-04-03T16:19:54;4.47;;;2.90;;
51810;SDS011;52468;40.116;18.296;2023-04-03T16:22:23;3.90;;;3.20;;
51810;SDS011;52468;40.116;18.296;2023-04-03T16:24:53;7.83;;;3.63;;
51810;SDS011;52468;40.116;18.296;2023-04-03T16:27:21;7.03;;;4.00;;
51810;SDS011;52468;40.116;18.296;2023-04-03T16:29:54;5.75;;;4.97;;
51810;SDS011;52468;40.116;18.296;2023-04-03T16:32:22;8.33;;;6.03;;
51810;SDS011;52468;40.116;18.296;2023-04-03T16:34:52;6.97;;;5.17;;
51810;SDS011;52468;40.116;18.296;2023-04-03T16:37:20;11.50;;;7.33;;
51810;SDS011;52468;40.116;18.296;2023-04-03T16:39:48;11.23;;;5.43;;
51810;SDS011;52468;40.116;18.296;2023-04-03T16:42:16;8.57;;;6.40;;
51810;SDS011;52468;40.116;18.296;2023-04-03T16:44:44;8.70;;;6.53;;
51810;SDS011;52468;40.116;18.296;2023-04-03T16:47:12;11.10;;;6.83;;
51810;SDS011;52468;40.116;18.296;2023-04-03T16:49:41;11.17;;;7.47;;
51810;SDS011;52468;40.116;18.296;2023-04-03T16:52:09;13.77;;;7.20;;
51810;SDS011;52468;40.116;18.296;2023-04-03T16:54:36;9.50;;;7.50;;
51810;SDS011;52468;40.116;18.296;2023-04-03T16:57:04;10.13;;;7.33;;
51810;SDS011;52468;40.116;18.296;2023-04-03T16:59:32;11.03;;;7.50;;
51810;SDS011;52468;40.116;18.296;2023-04-03T17:02:00;10.30;;;7.43;;
51810;SDS011;52468;40.116;18.296;2023-04-03T17:04:28;7.13;;;6.30;;